createdAt,value
2023-03-23T15:58:35.846Z,58.19
2023-03-23T16:01:08.675Z,58.61
2023-03-23T16:03:40.615Z,57.61
2023-03-23T16:06:09.485Z,57.72
2023-03-23T16:08:40.834Z,56.53
2023-03-23T16:11:11.221Z,57.66
2023-03-23T16:13:37.839Z,57.88
2023-03-23T16:16:05.363Z,57.48
2023-03-23T16:18:31.879Z,56.74
2023-03-23T16:20:58.391Z,56.82
2023-03-23T16:23:24.833Z,55.98
2023-03-23T16:25:51.499Z,57.72
2023-03-23T16:28:17.961Z,58.12
2023-03-23T16:30:44.961Z,56.80
2023-03-23T16:33:11.595Z,56.61
2023-03-23T16:35:38.189Z,57.39
2023-03-23T16:38:07.072Z,56.89
2023-03-23T16:40:36.528Z,56.53
2023-03-23T16:43:08.635Z,57.91
2023-03-23T16:45:37.145Z,57.74
2023-03-23T16:48:05.203Z,57.70
2023-03-23T16:50:32.008Z,56.21
2023-03-23T16:52:59.072Z,56.59
2023-03-23T16:55:27.220Z,57.92
2023-03-23T16:58:05.191Z,57.11
2023-03-23T17:00:36.187Z,57.04
2023-03-23T17:03:02.891Z,58.01
2023-03-23T17:05:29.882Z,58.02
2023-03-23T17:07:56.737Z,56.58
2023-03-23T17:10:27.187Z,57.96
2023-03-23T17:12:55.036Z,57.37
2023-03-23T17:15:21.992Z,58.33
2023-03-23T17:17:48.533Z,57.82
2023-03-23T17:20:15.090Z,57.73
2023-03-23T17:22:41.739Z,58.53
2023-03-23T17:25:09.310Z,59.65
2023-03-23T17:27:36.840Z,61.37
2023-03-23T17:30:05.370Z,61.65
2023-03-23T17:32:31.870Z,62.81
2023-03-23T17:34:58.869Z,63.42
2023-03-23T17:37:25.786Z,63.25
2023-03-23T17:39:53.230Z,64.29
2023-03-23T17:42:19.808Z,63.84
2023-03-23T17:44:46.324Z,64.62
2023-03-23T17:47:12.877Z,64.32
2023-03-23T17:49:39.442Z,66.43
2023-03-23T17:52:05.923Z,67.22
2023-03-23T17:54:32.462Z,66.76
2023-03-23T17:57:00.996Z,67.30
2023-03-23T17:59:29.154Z,67.04
2023-03-23T18:01:55.751Z,67.02
2023-03-23T18:04:22.587Z,67.09
2023-03-23T18:06:49.390Z,67.45
2023-03-23T18:09:15.908Z,66.40
2023-03-23T18:11:42.389Z,65.86
2023-03-23T18:14:08.881Z,66.75
2023-03-23T18:16:35.438Z,67.80
2023-03-23T18:19:02.038Z,68.06
2023-03-23T18:21:28.641Z,69.11
2023-03-23T18:23:59.799Z,69.44
2023-03-23T18:26:27.651Z,68.30
2023-03-23T18:28:54.191Z,69.25
2023-03-23T18:31:21.060Z,70.22
2023-03-23T18:33:49.931Z,68.97
2023-03-23T18:36:18.946Z,71.39
2023-03-23T18:38:46.396Z,70.33
2023-03-23T18:41:13.690Z,69.73
2023-03-23T18:43:40.458Z,70.94
2023-03-23T18:46:07.943Z,69.49
2023-03-23T18:48:35.741Z,70.47
2023-03-23T18:51:02.614Z,70.15
2023-03-23T18:53:29.460Z,70.07
2023-03-23T18:56:05.749Z,70.37
2023-03-23T18:58:32.768Z,70.87
2023-03-23T19:01:03.232Z,69.61
2023-03-23T19:03:31.006Z,69.77
2023-03-23T19:05:59.443Z,69.14
2023-03-23T19:08:27.489Z,70.27
2023-03-23T19:11:02.344Z,69.59
2023-03-23T19:13:30.789Z,69.47
2023-03-23T19:15:57.399Z,68.94
2023-03-23T19:18:24.113Z,69.14
2023-03-23T19:23:23.570Z,69.80
2023-03-23T19:25:53.516Z,70.55
2023-03-23T19:29:08.419Z,70.26
2023-03-23T19:31:08.832Z,70.54
2023-03-23T19:33:38.002Z,69.82
2023-03-23T19:36:10.212Z,70.54
2023-03-23T19:38:39.414Z,70.71
2023-03-23T19:41:06.689Z,72.70
2023-03-23T19:43:34.494Z,71.95
2023-03-23T19:46:02.096Z,71.79
2023-03-23T19:48:32.288Z,70.64
2023-03-23T19:50:59.457Z,70.22
2023-03-23T19:53:27.156Z,70.49
2023-03-23T19:55:57.500Z,72.23
2023-03-23T19:58:27.557Z,71.69
2023-03-23T20:00:55.140Z,71.49
2023-03-23T20:03:21.982Z,72.17
2023-03-23T20:08:31.390Z,72.79
2023-03-23T20:11:08.164Z,73.07
2023-03-23T20:13:35.123Z,71.77
2023-03-23T20:16:02.090Z,70.81
2023-03-23T20:18:32.295Z,71.50
2023-03-23T20:21:08.770Z,72.05
2023-03-23T20:23:40.248Z,71.72
2023-03-23T20:26:12.328Z,72.15
2023-03-23T20:28:40.722Z,72.18
2023-03-23T20:31:23.356Z,70.62
2023-03-23T20:34:00.857Z,71.37
2023-03-23T20:36:45.095Z,71.86
2023-03-23T20:39:14.752Z,71.58
2023-03-23T20:41:43.236Z,71.84
2023-03-23T20:44:14.367Z,71.46
2023-03-23T20:46:48.046Z,71.31
2023-03-23T20:49:15.880Z,71.92
2023-03-23T20:51:43.698Z,72.20
2023-03-23T20:54:11.371Z,71.73
2023-03-23T20:56:40.531Z,72.80
2023-03-23T20:59:07.504Z,72.27
2023-03-23T21:01:34.394Z,72.97
2023-03-23T21:04:03.106Z,71.98
2023-03-23T21:06:31.202Z,72.25
2023-03-23T21:08:58.130Z,71.64
2023-03-23T21:11:26.718Z,71.10
2023-03-23T21:13:53.773Z,73.22
2023-03-23T21:16:21.001Z,71.94
2023-03-23T21:18:47.891Z,74.04
2023-03-23T21:21:15.213Z,72.13
2023-03-23T21:23:48.718Z,73.94
2023-03-23T21:26:17.000Z,72.96
2023-03-23T21:28:44.724Z,72.85
2023-03-23T21:31:11.392Z,73.47
2023-03-23T21:33:37.938Z,73.74
2023-03-23T21:36:05.112Z,72.42
2023-03-23T21:38:32.340Z,73.56
2023-03-23T21:40:59.977Z,73.81
2023-03-23T21:43:27.484Z,74.91
2023-03-23T21:45:57.258Z,73.72
2023-03-23T21:48:25.305Z,73.89
2023-03-23T21:50:52.446Z,74.73
2023-03-23T21:53:19.578Z,74.07
2023-03-23T21:55:51.245Z,73.13
2023-03-23T21:58:23.277Z,74.83
2023-03-23T22:00:54.143Z,74.19
2023-03-23T22:03:25.039Z,74.74
2023-03-23T22:06:04.286Z,74.24
2023-03-23T22:08:31.205Z,74.48
2023-03-23T22:11:02.388Z,74.53
2023-03-23T22:13:30.917Z,74.14
2023-03-23T22:15:58.999Z,76.54
2023-03-23T22:18:26.505Z,75.60
2023-03-23T22:20:54.036Z,75.12
2023-03-23T22:23:21.310Z,74.21
2023-03-23T22:25:53.561Z,74.09
2023-03-23T22:28:31.886Z,74.95
2023-03-23T22:31:26.571Z,75.09
2023-03-23T22:34:49.411Z,76.57
2023-03-23T22:36:48.873Z,76.11
2023-03-23T22:39:15.560Z,74.83
2023-03-23T22:41:42.559Z,75.59
2023-03-23T22:44:14.784Z,73.15
2023-03-23T22:46:41.687Z,75.43
2023-03-23T22:49:08.309Z,73.84
2023-03-23T22:51:36.855Z,75.82
2023-03-23T22:54:04.989Z,75.84
2023-03-23T22:56:31.985Z,75.78
2023-03-23T22:59:00.124Z,75.78
2023-03-23T23:01:27.367Z,76.08
2023-03-23T23:03:54.194Z,74.35
2023-03-23T23:06:20.726Z,75.49
2023-03-23T23:08:48.147Z,75.76
2023-03-23T23:11:16.654Z,76.40
2023-03-23T23:13:43.213Z,76.59
2023-03-23T23:16:10.799Z,77.14
2023-03-23T23:18:37.909Z,76.00
2023-03-23T23:21:11.101Z,76.87
2023-03-23T23:23:38.008Z,75.97
2023-03-23T23:26:04.936Z,77.22
2023-03-23T23:28:31.418Z,76.54
2023-03-23T23:30:58.251Z,76.62
2023-03-23T23:33:24.712Z,75.21
2023-03-23T23:35:51.960Z,76.24
2023-03-23T23:38:18.651Z,75.83
2023-03-23T23:40:46.268Z,76.61
2023-03-23T23:43:16.590Z,76.50
2023-03-23T23:45:43.529Z,76.27
2023-03-23T23:48:10.207Z,77.71
2023-03-23T23:50:36.763Z,77.62
2023-03-23T23:53:04.844Z,77.97
2023-03-23T23:55:31.422Z,78.70
2023-03-23T23:57:57.911Z,77.39
